Time;durP1;ratioP1;P1;durP2;ratioP2;P2;SDS_P1;SDS_P2;PMS_P1;PMS_P2;Temp;Humidity;BMP_temperature;BMP_pressure;BME280_temperature;BME280_humidity;BME280_pressure;Samples;Min_cycle;Max_cycle;Signal;HPM_P1;HPM_P2
2022/05/17 00:01:29;;;;;;;12.30;6.50;;;;;;;12.36;46.89;100656.44;1743354;81;27435;-67
2022/05/17 00:03:55;;;;;;;11.35;6.03;;;;;;;12.31;46.83;100650.59;1743231;81;25809;-71
2022/05/17 00:06:22;;;;;;;11.63;6.85;;;;;;;12.30;46.91;100650.89;1745343;81;29674;-67
2022/05/17 00:08:48;;;;;;;11.73;6.12;;;;;;;12.27;46.86;100647.45;1741327;81;25588;-67
2022/05/17 00:11:15;;;;;;;12.58;5.97;;;;;;;12.24;47.02;100649.42;1741193;82;25546;-67
2022/05/17 00:13:42;;;;;;;10.75;5.62;;;;;;;12.20;46.85;100650.59;1741137;81;27536;-67
2022/05/17 00:16:08;;;;;;;18.92;5.90;;;;;;;12.15;46.88;100648.81;1741185;81;25562;-67
2022/05/17 00:18:35;;;;;;;12.78;5.80;;;;;;;12.13;47.02;100648.33;1741156;81;25546;-67
2022/05/17 00:21:03;;;;;;;11.25;6.05;;;;;;;12.09;46.79;100646.56;1732286;82;27795;-67
2022/05/17 00:23:30;;;;;;;13.05;5.80;;;;;;;12.07;46.95;100644.70;1741342;82;25320;-68
2022/05/17 00:25:57;;;;;;;12.25;5.78;;;;;;;12.02;46.82;100639.41;1741151;82;27512;-68
2022/05/17 00:28:23;;;;;;;12.40;6.10;;;;;;;11.99;46.93;100642.20;1741035;81;27338;-68
2022/05/17 00:30:51;;;;;;;12.05;5.67;;;;;;;11.94;46.90;100642.33;1741237;81;25415;-68
2022/05/17 00:33:17;;;;;;;11.93;5.15;;;;;;;11.90;46.96;100640.77;1741177;81;27766;-67
2022/05/17 00:35:48;;;;;;;12.25;5.28;;;;;;;11.87;46.79;100650.86;1741115;82;25448;-67
2022/05/17 00:38:14;;;;;;;12.85;5.70;;;;;;;11.84;46.91;100643.91;1740795;81;27489;-67
2022/05/17 00:40:41;;;;;;;11.45;5.80;;;;;;;11.78;46.94;100641.84;1740606;81;25463;-68
2022/05/17 00:43:10;;;;;;;9.78;5.53;;;;;;;11.73;46.78;100636.55;1741110;81;25401;-67
2022/05/17 00:45:42;;;;;;;11.22;5.28;;;;;;;11.70;46.98;100642.05;1734350;81;25711;-67
2022/05/17 00:48:08;;;;;;;9.58;4.97;;;;;;;11.65;46.94;100648.16;1740647;81;25583;-67
2022/05/17 00:50:42;;;;;;;8.65;4.92;;;;;;;11.63;47.11;100642.22;1729640;82;28177;-67
2022/05/17 00:53:27;;;;;;;8.55;4.40;;;;;;;11.58;46.90;100641.25;1730800;82;25547;-66
2022/05/17 00:56:00;;;;;;;10.60;5.75;;;;;;;11.54;47.07;100647.05;1730837;82;25529;-66
2022/05/17 00:58:50;;;;;;;11.48;4.90;;;;;;;11.51;47.23;100644.11;1730815;82;25640;-66
2022/05/17 01:01:24;;;;;;;7.55;3.92;;;;;;;11.45;47.40;100638.59;1730821;82;25400;-66
2022/05/17 01:04:19;;;;;;;9.13;4.45;;;;;;;11.38;47.36;100637.09;1730898;82;27406;-67
2022/05/17 01:06:50;;;;;;;9.80;4.70;;;;;;;11.34;47.37;100635.29;1730668;82;25547;-66
2022/05/17 01:09:16;;;;;;;10.45;4.65;;;;;;;11.28;47.65;100628.41;1728844;82;25447;-67
2022/05/17 01:11:43;;;;;;;9.48;4.42;;;;;;;11.25;47.96;100631.72;1730731;82;25532;-67
2022/05/17 01:16:58;;;;;;;6.80;4.00;;;;;;;11.17;48.13;100630.55;1730823;82;27524;-67
2022/05/17 01:19:25;;;;;;;8.80;4.25;;;;;;;11.10;48.29;100630.96;1681658;85;25426;-66
2022/05/17 01:21:52;;;;;;;9.58;4.50;;;;;;;11.07;48.12;100634.27;1730805;82;25558;-66
2022/05/17 01:24:18;;;;;;;9.85;4.00;;;;;;;11.03;48.20;100629.20;1730837;82;25636;-66
2022/05/17 01:26:49;;;;;;;9.35;4.95;;;;;;;10.99;48.26;100630.92;1730841;82;25403;-66
2022/05/17 01:29:16;;;;;;;8.00;3.87;;;;;;;10.95;48.46;100629.94;1730959;82;27583;-66
2022/05/17 01:31:42;;;;;;;12.90;4.17;;;;;;;10.90;48.62;100626.77;1730763;82;25671;-66
2022/05/17 01:34:11;;;;;;;7.08;3.50;;;;;;;10.86;48.65;100633.87;1730859;82;25599;-66
2022/05/17 01:36:39;;;;;;;8.53;3.83;;;;;;;10.84;49.04;100636.09;1730938;82;26321;-66
2022/05/17 01:39:07;;;;;;;8.53;3.80;;;;;;;10.78;49.09;100629.99;1731280;82;25638;-66
2022/05/17 01:41:34;;;;;;;7.60;3.35;;;;;;;10.75;49.07;100627.09;1730982;82;27637;-66
2022/05/17 01:44:01;;;;;;;5.20;3.55;;;;;;;10.71;49.13;100626.08;1730880;82;25686;-66
2022/05/17 01:46:27;;;;;;;8.08;4.00;;;;;;;10.67;49.37;100631.29;1731010;82;25566;-66
2022/05/17 01:48:54;;;;;;;9.10;3.72;;;;;;;10.62;49.44;100630.04;1730931;82;26113;-66
2022/05/17 01:51:22;;;;;;;8.13;3.50;;;;;;;10.58;49.67;100627.14;1731088;82;25456;-66
2022/05/17 01:53:48;;;;;;;6.80;3.52;;;;;;;10.54;49.81;100631.55;1730934;82;27479;-66
2022/05/17 01:56:15;;;;;;;8.38;3.55;;;;;;;10.49;49.86;100635.72;1731132;82;26077;-66
2022/05/17 01:58:42;;;;;;;4.30;2.98;;;;;;;10.48;50.25;100638.16;1730989;82;25557;-66
2022/05/17 02:01:10;;;;;;;7.85;3.50;;;;;;;10.43;50.06;100634.19;1730933;82;25559;-67
2022/05/17 02:03:37;;;;;;;5.33;3.10;;;;;;;10.40;50.42;100638.31;1730879;82;25567;-66
2022/05/17 02:06:05;;;;;;;5.80;3.17;;;;;;;10.36;50.33;100633.23;1731051;82;27521;-66
2022/05/17 02:08:31;;;;;;;8.93;3.15;;;;;;;10.33;50.42;100631.13;1730774;82;25637;-66
2022/05/17 02:10:58;;;;;;;7.28;2.87;;;;;;;10.29;50.61;100638.20;1730953;82;25619;-66
2022/05/17 02:13:25;;;;;;;6.15;2.95;;;;;;;10.24;50.78;100644.50;1730832;82;25719;-67
2022/05/17 02:15:51;;;;;;;9.63;3.30;;;;;;;10.20;51.04;100641.33;1730891;82;25395;-69
2022/05/17 02:18:18;;;;;;;6.22;3.25;;;;;;;10.15;50.98;100649.00;1730884;82;27553;-66
2022/05/17 02:20:44;;;;;;;8.00;3.33;;;;;;;10.10;51.25;100645.03;1730999;82;25628;-66
2022/05/17 02:23:10;;;;;;;4.75;3.15;;;;;;;10.04;51.25;100641.59;1730752;82;25384;-67
2022/05/17 02:25:36;;;;;;;5.95;3.00;;;;;;;10.02;51.57;100645.71;1681386;85;34837;-66
2022/05/17 02:28:06;;;;;;;5.45;2.60;;;;;;;9.99;51.54;100643.59;1728339;83;25406;-67
2022/05/17 02:30:32;;;;;;;7.22;3.05;;;;;;;9.96;51.71;100647.70;1729127;82;27738;-66
2022/05/17 02:32:58;;;;;;;7.92;2.55;;;;;;;9.91;52.03;100646.44;1730657;82;26027;-66
2022/05/17 02:35:25;;;;;;;7.08;2.98;;;;;;;9.88;51.98;100646.47;1730860;82;25467;-66
2022/05/17 02:37:51;;;;;;;4.15;2.75;;;;;;;9.84;52.01;100647.34;1730768;82;25488;-66
2022/05/17 02:40:17;;;;;;;6.22;2.83;;;;;;;9.83;52.04;100663.31;1730981;82;25459;-66
2022/05/17 02:42:44;;;;;;;4.60;2.60;;;;;;;9.80;52.34;100661.20;1730870;82;28147;-66
2022/05/17 02:45:12;;;;;;;3.33;2.50;;;;;;;9.78;52.27;100662.05;1730568;82;25742;-67
2022/05/17 02:47:38;;;;;;;3.20;2.58;;;;;;;9.78;52.20;100669.59;1730998;82;25570;-67
2022/05/17 02:50:09;;;;;;;4.30;2.22;;;;;;;9.77;52.26;100673.38;1730873;82;26286;-67
2022/05/17 02:52:36;;;;;;;4.42;2.40;;;;;;;9.77;52.21;100673.38;1731043;82;25560;-68
2022/05/17 02:55:03;;;;;;;4.35;2.45;;;;;;;9.78;52.05;100675.00;1730904;82;27522;-68
2022/05/17 02:57:30;;;;;;;3.80;2.67;;;;;;;9.78;51.81;100667.45;1730724;82;25407;-67
2022/05/17 02:59:56;;;;;;;3.45;2.30;;;;;;;9.78;51.69;100675.55;1731112;82;25411;-67
2022/05/17 03:02:23;;;;;;;4.10;2.35;;;;;;;9.80;51.77;100669.30;1730618;82;25730;-67
2022/05/17 03:04:49;;;;;;;3.08;2.02;;;;;;;9.80;51.66;100674.15;1704437;82;25426;-67
2022/05/17 03:07:16;;;;;;;4.10;2.15;;;;;;;9.82;51.86;100681.41;1730645;82;27527;-67
2022/05/17 03:09:42;;;;;;;4.25;2.50;;;;;;;9.85;51.80;100678.68;1730424;82;25759;-67
2022/05/17 03:12:11;;;;;;;2.80;2.00;;;;;;;9.86;51.73;100681.09;1730718;82;25618;-67
2022/05/17 03:14:37;;;;;;;3.12;2.10;;;;;;;9.88;51.60;100680.24;1730663;82;25570;-67
2022/05/17 03:17:16;;;;;;;3.05;2.00;;;;;;;9.90;51.43;100684.00;1730760;82;25544;-67
2022/05/17 03:19:43;;;;;;;3.72;1.85;;;;;;;9.91;51.40;100697.78;1730776;82;27509;-66
2022/05/17 03:22:11;;;;;;;3.05;1.77;;;;;;;9.93;51.45;100700.16;1730593;82;25412;-66
2022/05/17 03:24:38;;;;;;;2.62;2.05;;;;;;;9.96;51.35;100700.92;1730792;82;25450;-66
2022/05/17 03:27:06;;;;;;;6.58;1.90;;;;;;;9.99;51.24;100695.73;1704387;82;25607;-66
2022/05/17 03:29:33;;;;;;;4.78;1.57;;;;;;;10.01;51.15;100697.62;1731119;82;25640;-66
2022/05/17 03:32:00;;;;;;;6.20;2.00;;;;;;;10.05;51.12;100703.23;1731025;82;27515;-66
2022/05/17 03:34:28;;;;;;;2.75;1.82;;;;;;;10.07;51.00;100696.41;1730742;82;25613;-66
2022/05/17 03:36:54;;;;;;;3.92;1.95;;;;;;;10.10;51.03;100686.38;1730963;82;25612;-66
2022/05/17 03:39:20;;;;;;;4.53;2.00;;;;;;;10.15;50.90;100690.90;1730775;82;25618;-66
2022/05/17 03:41:47;;;;;;;3.90;1.80;;;;;;;10.18;50.71;100686.26;1730807;82;25471;-66
2022/05/17 03:44:13;;;;;;;5.47;2.20;;;;;;;10.18;50.71;100686.26;1730733;82;27510;-66
2022/05/17 03:46:39;;;;;;;2.90;1.90;;;;;;;10.21;50.65;100693.75;1730794;82;25581;-66
2022/05/17 03:49:05;;;;;;;3.20;1.37;;;;;;;10.23;50.72;100690.75;1731006;82;29637;-66
2022/05/17 03:51:31;;;;;;;3.10;1.65;;;;;;;10.25;50.82;100689.38;1730782;82;25540;-66
2022/05/17 03:53:57;;;;;;;4.40;1.72;;;;;;;10.27;50.57;100686.38;1730917;82;26737;-66
2022/05/17 03:56:23;;;;;;;4.08;1.82;;;;;;;10.29;50.89;100690.38;1730750;82;27568;-66
2022/05/17 03:58:49;;;;;;;3.90;1.80;;;;;;;10.27;50.80;100689.88;1730700;82;25493;-67
2022/05/17 04:01:15;;;;;;;4.15;1.72;;;;;;;10.28;50.85;100683.91;1730829;82;25615;-66
2022/05/17 04:03:43;;;;;;;8.48;2.00;;;;;;;10.27;50.72;100679.62;1681730;85;25753;-67
2022/05/17 04:06:10;;;;;;;10.95;2.12;;;;;;;10.26;50.65;100682.05;1730898;82;25634;-67
2022/05/17 04:08:37;;;;;;;6.15;2.40;;;;;;;10.27;50.74;100689.88;1730777;82;28140;-66
2022/05/17 04:11:05;;;;;;;5.50;2.00;;;;;;;10.29;50.99;100690.93;1730816;82;25907;-66
2022/05/17 04:13:32;;;;;;;1.95;1.60;;;;;;;10.30;51.24;100695.25;1730720;82;25543;-66
2022/05/17 04:16:01;;;;;;;4.22;1.70;;;;;;;10.29;51.26;100698.48;1703218;82;25519;-66
2022/05/17 04:18:28;;;;;;;2.27;2.00;;;;;;;10.29;51.02;100694.42;1731115;82;25470;-66
2022/05/17 04:20:59;;;;;;;2.95;1.67;;;;;;;10.31;51.22;100694.69;1730917;82;28149;-67
2022/05/17 04:23:27;;;;;;;7.85;4.58;;;;;;;10.34;51.43;100698.19;1730694;82;25742;-66
2022/05/17 04:25:56;;;;;;;18.67;10.32;;;;;;;10.32;51.16;100691.72;1681328;85;25408;-66
2022/05/17 04:28:22;;;;;;;4.78;3.08;;;;;;;10.34;51.31;100704.39;1727602;82;25665;-66
2022/05/17 04:30:50;;;;;;;3.67;2.00;;;;;;;10.36;51.49;100704.09;1730855;82;25617;-66
2022/05/17 04:33:16;;;;;;;3.52;1.90;;;;;;;10.35;51.58;100708.71;1730832;82;27467;-66
2022/05/17 04:35:43;;;;;;;3.50;2.00;;;;;;;10.37;51.73;100712.44;1730783;82;25588;-66
2022/05/17 04:38:10;;;;;;;2.83;2.00;;;;;;;10.41;51.74;100716.97;1730804;82;25491;-66
2022/05/17 04:40:38;;;;;;;4.20;2.10;;;;;;;10.48;51.73;100716.59;1730869;82;26073;-67
2022/05/17 04:43:06;;;;;;;3.35;1.90;;;;;;;10.54;51.85;100718.64;1730820;82;25626;-65
2022/05/17 04:45:32;;;;;;;4.12;2.05;;;;;;;10.58;51.78;100716.40;1730818;82;27455;-67
2022/05/17 04:47:58;;;;;;;4.78;1.90;;;;;;;10.64;51.69;100723.86;1730737;82;25506;-68
2022/05/17 04:50:24;;;;;;;6.28;1.80;;;;;;;10.69;51.77;100719.71;1730820;82;25405;-68
2022/05/17 04:52:51;;;;;;;4.22;2.08;;;;;;;10.74;51.37;100726.38;1730802;82;25708;-68
2022/05/17 04:55:20;;;;;;;2.75;1.70;;;;;;;10.76;51.24;100726.91;1730998;82;25613;-69
2022/05/17 04:57:47;;;;;;;2.20;1.37;;;;;;;10.84;51.16;100728.92;1731000;82;28038;-68
2022/05/17 05:00:18;;;;;;;2.65;1.42;;;;;;;10.87;50.92;100735.63;1730770;82;25681;-68
2022/05/17 05:02:47;;;;;;;2.10;1.70;;;;;;;10.93;50.85;100732.26;1730863;82;25554;-68
2022/05/17 05:05:15;;;;;;;2.87;1.60;;;;;;;10.97;50.55;100731.92;1730807;82;25581;-69
2022/05/17 05:07:41;;;;;;;4.45;1.42;;;;;;;11.03;50.30;100741.53;1729586;82;25478;-69
2022/05/17 05:10:10;;;;;;;4.78;1.50;;;;;;;11.05;49.96;100743.41;1728248;83;28315;-68
2022/05/17 05:12:37;;;;;;;2.25;1.50;;;;;;;11.11;49.69;100743.55;1726622;82;26512;-68
2022/05/17 05:15:05;;;;;;;4.53;1.65;;;;;;;11.15;49.52;100747.80;1727945;82;25636;-68
2022/05/17 05:17:34;;;;;;;4.20;1.30;;;;;;;11.17;49.21;100745.62;1681483;85;25641;-68
2022/05/17 05:20:02;;;;;;;5.87;2.00;;;;;;;11.21;49.16;100750.67;1727910;82;25409;-67
2022/05/17 05:22:34;;;;;;;4.58;1.82;;;;;;;11.30;49.07;100752.11;1727796;82;27522;-67
2022/05/17 05:25:00;;;;;;;4.92;1.57;;;;;;;11.40;48.79;100754.61;1705765;83;25653;-67
2022/05/17 05:27:32;;;;;;;3.10;1.20;;;;;;;11.49;48.61;100752.80;1678026;85;25473;-67
2022/05/17 05:30:00;;;;;;;4.12;1.35;;;;;;;11.59;48.54;100762.59;1725711;82;25746;-67
2022/05/17 05:32:27;;;;;;;1.65;1.27;;;;;;;11.66;48.29;100758.13;1727529;82;25562;-68
2022/05/17 05:34:54;;;;;;;7.65;1.45;;;;;;;11.74;48.12;100754.70;1727586;82;27367;-67
2022/05/17 05:37:20;;;;;;;7.25;1.60;;;;;;;11.80;47.83;100748.59;1727546;82;25674;-67
2022/05/17 05:39:46;;;;;;;5.95;1.40;;;;;;;11.86;47.69;100753.59;1728437;82;25447;-67
2022/05/17 05:42:13;;;;;;;3.22;1.30;;;;;;;11.93;47.70;100763.48;1730543;82;25608;-67
2022/05/17 05:44:39;;;;;;;6.00;1.50;;;;;;;12.03;47.42;100757.59;1730360;82;25424;-67
2022/05/17 05:47:06;;;;;;;2.27;1.40;;;;;;;12.08;47.25;100755.56;1730601;82;27400;-67
2022/05/17 05:49:32;;;;;;;4.08;1.55;;;;;;;12.16;46.99;100756.74;1730629;82;25589;-68
2022/05/17 05:51:58;;;;;;;1.85;1.25;;;;;;;12.30;47.11;100755.32;1681654;84;29744;-68
2022/05/17 05:54:24;;;;;;;3.37;1.90;;;;;;;12.59;46.82;100776.56;1668218;85;25658;-68
2022/05/17 05:57:15;;;;;;;;;;;;;;;;;;;;;
2022/05/17 05:59:35;;;;;;;1.75;1.27;;;;;;;12.77;46.46;100753.58;1658344;85;25803;-68
2022/05/17 06:02:03;;;;;;;2.90;1.60;;;;;;;12.90;46.00;100758.11;1681205;84;25768;-69
2022/05/17 06:04:29;;;;;;;5.58;1.50;;;;;;;13.07;45.77;100762.24;1680090;84;25612;-67
2022/05/17 06:06:57;;;;;;;3.30;1.12;;;;;;;13.27;45.54;100761.44;1679748;84;25561;-68
2022/05/17 06:09:31;;;;;;;4.42;1.37;;;;;;;13.43;44.90;100758.56;1681935;84;25592;-68
2022/05/17 06:11:57;;;;;;;2.62;1.20;;;;;;;13.53;44.60;100759.37;1650148;85;27508;-68
2022/05/17 06:14:23;;;;;;;7.28;1.27;;;;;;;13.61;43.60;100764.02;1651516;86;25824;-67
2022/05/17 06:16:51;;;;;;;6.47;1.35;;;;;;;13.64;42.79;100769.63;1647799;87;25673;-67
2022/05/17 06:19:18;;;;;;;1.77;1.07;;;;;;;13.73;42.07;100768.84;1642413;87;25718;-67
2022/05/17 06:21:46;;;;;;;3.85;1.30;;;;;;;13.90;41.57;100768.05;1648050;87;25886;-67
2022/05/17 06:24:12;;;;;;;4.83;1.75;;;;;;;14.00;41.04;100769.09;1640150;87;27310;-68
2022/05/17 06:26:38;;;;;;;5.15;0.90;;;;;;;14.12;40.98;100769.23;1647849;87;25827;-67
2022/05/17 06:29:04;;;;;;;5.03;1.00;;;;;;;14.42;40.71;100769.91;1640224;87;25747;-68
2022/05/17 06:31:30;;;;;;;3.67;1.12;;;;;;;14.59;40.54;100773.19;1647983;87;26579;-67
2022/05/17 06:33:57;;;;;;;1.90;0.98;;;;;;;14.74;39.26;100778.94;1640388;87;25664;-67
2022/05/17 06:36:23;;;;;;;1.87;0.90;;;;;;;14.80;38.88;100770.02;1659030;85;27353;-67
2022/05/17 06:38:49;;;;;;;6.53;0.90;;;;;;;14.83;38.45;100773.45;1672661;85;25703;-67
2022/05/17 06:41:15;;;;;;;3.98;1.75;;;;;;;14.74;37.79;100778.94;1669037;85;25573;-67
2022/05/17 06:43:41;;;;;;;1.27;0.93;;;;;;;14.68;38.17;100778.07;1667785;86;26062;-67
2022/05/17 06:46:08;;;;;;;1.85;0.93;;;;;;;14.72;38.16;100778.44;1667845;86;25418;-67
2022/05/17 06:48:34;;;;;;;4.70;0.98;;;;;;;14.83;38.32;100775.36;1667756;86;27420;-67
2022/05/17 06:51:06;;;;;;;1.90;0.82;;;;;;;14.94;37.89;100767.87;1667724;86;25802;-66
2022/05/17 06:53:35;;;;;;;4.10;1.45;;;;;;;14.94;37.37;100770.59;1648270;86;25706;-68
2022/05/17 06:56:06;;;;;;;5.62;2.33;;;;;;;14.92;36.97;100768.77;1666915;84;25562;-67
2022/05/17 06:58:33;;;;;;;1.25;0.90;;;;;;;14.92;37.12;100777.50;1681393;85;25427;-67
2022/05/17 07:00:59;;;;;;;1.72;0.62;;;;;;;15.12;37.08;100771.33;1668055;85;27355;-68
2022/05/17 07:03:26;;;;;;;2.85;1.02;;;;;;;15.47;37.13;100766.24;1667695;85;25475;-67
2022/05/17 07:05:52;;;;;;;3.12;0.90;;;;;;;15.79;36.24;100758.52;1667843;86;25710;-67
2022/05/17 07:08:19;;;;;;;3.37;0.62;;;;;;;15.97;35.86;100764.62;1670784;85;25707;-67
2022/05/17 07:13:30;;;;;;;4.25;1.55;;;;;;;16.53;35.48;100769.17;1730602;82;29388;-67
2022/05/17 07:15:58;;;;;;;0.75;0.75;;;;;;;16.71;34.93;100765.66;1730665;82;25649;-67
2022/05/17 07:18:28;;;;;;;2.22;0.70;;;;;;;16.78;34.33;100767.27;1730586;82;25773;-67
2022/05/17 07:20:55;;;;;;;1.00;0.93;;;;;;;16.75;33.90;100765.23;1730630;82;26019;-67
2022/05/17 07:23:24;;;;;;;3.45;0.80;;;;;;;16.92;34.20;100766.96;1730580;82;25546;-68
2022/05/17 07:25:52;;;;;;;2.58;0.50;;;;;;;17.21;33.50;100758.89;1730847;82;27401;-68
2022/05/17 07:28:22;;;;;;;2.83;0.75;;;;;;;17.33;33.58;100770.63;1730519;82;25396;-68
2022/05/17 07:30:50;;;;;;;1.52;0.60;;;;;;;17.51;33.06;100776.64;1730717;82;25629;-68
2022/05/17 07:33:17;;;;;;;1.45;0.60;;;;;;;17.89;33.54;100776.02;1730645;82;25836;-68
2022/05/17 07:35:44;;;;;;;1.35;0.70;;;;;;;18.40;32.71;100778.99;1730706;82;25610;-68
2022/05/17 07:38:11;;;;;;;1.60;0.80;;;;;;;18.80;32.40;100777.30;1730640;82;27414;-68
2022/05/17 07:40:37;;;;;;;0.60;0.60;;;;;;;19.18;32.09;100780.79;1730568;82;25371;-67
2022/05/17 07:43:04;;;;;;;1.87;0.70;;;;;;;19.56;31.48;100778.50;1725751;82;25404;-67
2022/05/17 07:45:31;;;;;;;4.20;0.72;;;;;;;19.91;30.62;100782.63;1725723;82;25631;-67
2022/05/17 07:47:57;;;;;;;2.25;0.53;;;;;;;20.14;29.90;100779.97;1730500;82;25647;-67
2022/05/17 07:50:23;;;;;;;4.22;0.80;;;;;;;20.28;29.66;100775.91;1730700;82;27446;-67
2022/05/17 07:52:49;;;;;;;4.45;0.57;;;;;;;20.47;29.16;100772.33;1730766;82;25753;-67
2022/05/17 07:55:15;;;;;;;1.85;0.65;;;;;;;20.68;29.04;100775.47;1730848;82;25613;-68
2022/05/17 07:57:41;;;;;;;4.42;1.05;;;;;;;20.94;29.12;100775.31;1730748;82;25688;-68
2022/05/17 08:00:10;;;;;;;1.20;1.00;;;;;;;21.35;28.92;100781.64;1732907;82;25613;-68
2022/05/17 08:02:36;;;;;;;5.05;0.80;;;;;;;21.63;28.25;100782.08;1730659;82;27322;-67
2022/05/17 08:05:04;;;;;;;0.70;0.60;;;;;;;21.82;27.36;100785.86;1730704;82;25617;-67
2022/05/17 08:07:31;;;;;;;2.67;0.80;;;;;;;21.90;27.51;100782.63;1730591;82;25549;-67
2022/05/17 08:09:57;;;;;;;4.00;0.60;;;;;;;21.80;26.74;100786.83;1728026;82;25543;-67
2022/05/17 08:12:24;;;;;;;1.60;0.70;;;;;;;21.50;26.63;100781.30;1727761;82;25896;-68
2022/05/17 08:14:51;;;;;;;1.95;0.90;;;;;;;21.42;27.02;100785.89;1728071;82;27306;-69
2022/05/17 08:17:17;;;;;;;3.17;1.07;;;;;;;21.57;26.71;100776.70;1727799;83;25633;-68
2022/05/17 08:19:43;;;;;;;6.28;0.70;;;;;;;21.70;26.90;100776.47;1728038;82;25704;-68
2022/05/17 08:22:13;;;;;;;4.55;0.72;;;;;;;21.73;27.06;100771.59;1728049;82;25346;-68
2022/05/17 08:27:31;;;;;;;2.55;0.93;;;;;;;21.99;26.44;100767.38;1727981;83;27333;-68
2022/05/17 08:30:00;;;;;;;4.42;1.00;;;;;;;22.33;26.85;100764.64;1728035;82;25360;-66
2022/05/17 08:35:11;;;;;;;1.70;0.47;;;;;;;22.93;26.09;100769.14;1727937;82;25399;-68
2022/05/17 08:37:37;;;;;;;2.87;1.22;;;;;;;23.34;25.66;100773.77;1728078;82;25455;-70
2022/05/17 08:40:06;;;;;;;1.95;0.70;;;;;;;23.66;25.29;100777.31;1727953;82;26949;-68
2022/05/17 08:42:46;;;;;;;6.87;0.80;;;;;;;23.74;24.42;100778.16;1727944;82;25631;-68
2022/05/17 08:45:17;;;;;;;5.28;0.60;;;;;;;23.89;24.55;100768.78;1726755;82;25730;-68
2022/05/17 08:47:52;;;;;;;4.45;1.00;;;;;;;24.12;24.32;100764.30;1727887;82;25677;-68
2022/05/17 08:50:26;;;;;;;2.10;0.60;;;;;;;24.36;24.06;100755.08;1727772;82;25443;-67
2022/05/17 08:52:54;;;;;;;1.82;0.78;;;;;;;24.46;23.74;100754.91;1728040;82;27322;-68
2022/05/17 08:55:31;;;;;;;2.47;0.70;;;;;;;24.51;23.78;100764.20;1727899;82;25409;-68
2022/05/17 08:58:09;;;;;;;1.65;0.88;;;;;;;24.72;23.85;100754.57;1727829;82;25632;-68
2022/05/17 09:00:43;;;;;;;3.15;0.82;;;;;;;24.90;23.33;100760.69;1728844;82;26375;-69
2022/05/17 09:03:18;;;;;;;1.80;0.70;;;;;;;24.72;23.13;100751.00;1728758;82;25433;-68
2022/05/17 09:06:33;;;;;;;2.00;0.80;;;;;;;24.91;23.49;100759.48;1728107;82;27967;-67
2022/05/17 09:09:20;;;;;;;5.97;0.75;;;;;;;25.34;23.30;100760.25;1727920;82;25657;-68
2022/05/17 09:11:59;;;;;;;0.90;0.55;;;;;;;25.81;22.85;100744.88;1672540;85;25574;-68
2022/05/17 09:14:33;;;;;;;1.98;0.70;;;;;;;26.07;22.30;100746.95;1672609;85;25738;-68
2022/05/17 09:17:12;;;;;;;2.25;0.70;;;;;;;26.12;22.27;100749.30;1669348;85;25652;-67
2022/05/17 09:19:38;;;;;;;3.15;0.60;;;;;;;26.10;21.65;100741.97;1663027;85;27173;-67
2022/05/17 09:22:06;;;;;;;3.08;0.70;;;;;;;26.15;21.73;100742.14;1662803;85;25612;-67
2022/05/17 09:24:43;;;;;;;3.87;0.93;;;;;;;26.34;21.45;100750.53;1662923;85;25601;-67
2022/05/17 09:27:27;;;;;;;3.00;0.80;;;;;;;26.37;20.99;100745.57;1662958;85;25955;-68
2022/05/17 09:30:15;;;;;;;1.45;0.60;;;;;;;26.17;20.54;100743.91;1589597;89;25930;-68
2022/05/17 09:32:44;;;;;;;2.12;0.65;;;;;;;26.05;20.85;100747.94;1603084;87;28133;-68
2022/05/17 09:35:15;;;;;;;;;;;;;;;26.07;20.61;100753.89;1604736;89;25729;-68
2022/05/17 09:37:47;;;;;;;1.52;0.47;;;;;;;25.80;20.13;100749.44;1646136;86;25598;-68
2022/05/17 09:40:24;;;;;;;3.35;0.78;;;;;;;25.58;20.23;100753.66;1623788;87;25686;-68
2022/05/17 09:43:00;;;;;;;1.00;0.50;;;;;;;25.55;20.41;100751.69;1646090;87;25436;-68
2022/05/17 09:45:49;;;;;;;4.05;0.72;;;;;;;25.60;20.45;100759.59;1646049;87;27338;-68
2022/05/17 09:52:32;;;;;;;1.00;0.53;;;;;;;25.82;20.55;100757.52;1656405;85;25574;-68
2022/05/17 09:53:52;;;;;;;2.33;0.70;;;;;;;26.01;19.74;100753.50;1535362;92;25581;-69
2022/05/17 09:56:27;;;;;;;3.87;0.50;;;;;;;25.84;19.84;100751.58;1537689;92;25696;-69
2022/05/17 09:58:53;;;;;;;4.15;0.72;;;;;;;25.79;19.73;100755.55;1536024;93;27938;-68
2022/05/17 10:01:28;;;;;;;1.30;0.62;;;;;;;25.61;19.51;100751.48;1535845;93;25743;-68
2022/05/17 10:04:09;;;;;;;1.87;0.68;;;;;;;25.33;19.43;100756.50;1534662;93;25494;-67
2022/05/17 10:06:39;;;;;;;4.78;0.60;;;;;;;25.16;19.67;100749.20;1535715;93;26995;-67
2022/05/17 10:09:13;;;;;;;1.57;0.82;;;;;;;25.05;19.93;100748.42;1538245;93;25640;-68
2022/05/17 10:11:59;;;;;;;3.50;0.90;;;;;;;25.02;20.13;100751.20;1540492;91;28059;-68
2022/05/17 10:14:33;;;;;;;5.20;1.87;;;;;;;25.06;20.15;100747.22;1542159;93;25887;-68
2022/05/17 10:17:14;;;;;;;2.92;1.22;;;;;;;25.06;19.94;100743.06;1541837;91;25757;-66
2022/05/17 10:19:54;;;;;;;2.30;0.65;;;;;;;25.10;20.36;100737.55;1540658;93;25731;-66
2022/05/17 10:22:56;;;;;;;4.75;0.70;;;;;;;25.26;20.20;100745.45;1542397;93;25635;-66
2022/05/17 10:25:43;;;;;;;2.35;1.07;;;;;;;25.31;19.90;100734.75;1534808;93;29598;-66
2022/05/17 10:28:21;;;;;;;1.20;0.65;;;;;;;25.44;19.90;100737.11;1578461;87;25823;-64
2022/05/17 10:31:14;;;;;;;0.87;0.67;;;;;;;25.58;19.67;100732.11;1679621;84;25733;-65
2022/05/17 10:34:10;;;;;;;3.42;1.17;;;;;;;25.68;19.56;100740.98;1679617;85;25542;-65
2022/05/17 10:36:47;;;;;;;4.42;1.98;;;;;;;26.05;19.69;100739.05;1679627;85;25661;-65
2022/05/17 10:39:28;;;;;;;2.27;0.80;;;;;;;26.47;19.48;100724.69;1679552;85;27519;-66
2022/05/17 10:41:55;;;;;;;5.25;0.90;;;;;;;26.64;19.05;100727.16;1679463;85;25703;-66
2022/05/17 10:44:22;;;;;;;1.65;0.75;;;;;;;26.64;18.78;100729.93;1679466;85;25798;-66
2022/05/17 10:47:00;;;;;;;2.60;0.68;;;;;;;26.62;18.38;100721.23;1679551;85;25624;-66
2022/05/17 10:49:40;;;;;;;3.47;0.75;;;;;;;26.37;18.53;100720.01;1678429;85;25758;-66
2022/05/17 10:52:13;;;;;;;2.55;0.80;;;;;;;26.33;18.54;100718.48;1679081;85;29580;-67
2022/05/17 10:54:57;;;;;;;4.03;0.82;;;;;;;26.39;18.78;100712.09;1679469;85;25770;-65
2022/05/17 10:57:56;;;;;;;2.27;0.78;;;;;;;26.55;18.87;100714.95;1679207;85;25723;-66
2022/05/17 11:00:34;;;;;;;1.42;0.68;;;;;;;26.78;18.95;100715.17;1679425;85;25486;-65
2022/05/17 11:03:41;;;;;;;1.25;0.80;;;;;;;26.99;18.97;100707.23;1718052;82;25507;-66
2022/05/17 11:06:27;;;;;;;2.35;0.93;;;;;;;27.21;18.58;100703.62;1731291;82;28032;-65
2022/05/17 11:09:20;;;;;;;2.12;0.65;;;;;;;27.54;18.36;100708.84;1730331;82;25364;-66
2022/05/17 11:12:06;;;;;;;1.50;0.72;;;;;;;27.84;18.45;100709.45;1730732;82;25493;-66
2022/05/17 11:14:54;;;;;;;1.70;0.60;;;;;;;28.24;18.06;100704.73;1729098;82;25968;-67
2022/05/17 11:17:36;;;;;;;3.05;1.00;;;;;;;28.29;17.82;100699.47;1730638;82;25408;-66
2022/05/17 11:20:26;;;;;;;3.50;0.85;;;;;;;28.44;17.77;100699.25;1730525;82;27298;-67
2022/05/17 11:23:33;;;;;;;6.22;1.00;;;;;;;28.67;17.72;100701.27;1730581;82;25412;-67
2022/05/17 11:26:31;;;;;;;1.62;0.60;;;;;;;29.11;17.38;100692.93;1729969;82;25405;-66
2022/05/17 11:29:27;;;;;;;2.15;0.70;;;;;;;29.21;17.08;100685.78;1730717;82;26018;-66
2022/05/17 11:32:15;;;;;;;2.58;0.88;;;;;;;29.28;16.90;100695.99;1730807;82;25358;-66
2022/05/17 11:34:44;;;;;;;4.92;0.50;;;;;;;29.08;16.78;100688.98;1730713;82;30031;-66
2022/05/17 11:37:38;;;;;;;1.90;0.80;;;;;;;29.11;16.72;100691.54;1730649;82;25582;-66
2022/05/17 11:40:09;;;;;;;2.47;0.72;;;;;;;29.28;17.04;100689.65;1730750;82;25597;-66
2022/05/17 11:43:40;;;;;;;5.45;0.98;;;;;;;29.40;16.99;100694.56;1704066;82;25682;-67
2022/05/17 11:45:26;;;;;;;5.55;1.00;;;;;;;29.28;16.62;100689.03;1733029;81;25742;-68
2022/05/17 11:47:58;;;;;;;5.40;1.00;;;;;;;28.98;16.74;100683.02;1741915;81;26905;-66
2022/05/17 11:50:38;;;;;;;3.40;0.90;;;;;;;28.77;16.93;100696.73;1740979;82;25551;-66
2022/05/17 11:53:30;;;;;;;2.17;0.80;;;;;;;28.60;16.68;100681.30;1740975;82;25469;-66
2022/05/17 11:56:14;;;;;;;2.08;0.80;;;;;;;28.43;17.02;100683.15;1741060;82;26467;-67
2022/05/17 11:58:46;;;;;;;3.17;0.95;;;;;;;28.63;17.28;100681.86;1732533;81;25561;-67